Route Details

Aircraft Information
Group: Trans-Pacific Ops
Types: B744, MD11
Route Data
Distance: 3160nm
Duration: 7h 20m
Origin METAR: OMDB 080000Z 20006KT CAVOK 24/08 Q1009 NOSIG
Dest. METAR: WSSS 080000Z 35006KT 310V010 9000 FEW015 BKN300 25/24 Q1009 NOSIG
Freight Data
(for Feb 8, 2023)
Load Factor:
60%
Manifested Cargo: 121,936lbs
Financial History
Total Freight: 0lbs
Average Load: 0lbs/flt
Fuel Used: 0lbs
Avg. Fuel Used: 0lbs/flt
Fuel Expense: $0
Avg. Fuel Expense: $0
Avg. Fuel Cost: $0/lbs
Total Gross Income: $0
Pilot Pay: $0
Total Expenses: $0
Total Revenue: $0
Average Revenue: $0

Capitol Logistics 816




OMDB
Dubai International Airport
Dubai, AE
WSSS
Changi International Airport
Singapore, SG

Activity Log

Date Flight Route Aircraft Duration
No Flights Yet